METAR Data
IDs: Format: Raw Decoded Include TAF

Data at: 1331 UTC 20 Jul 2019

METAR for:KSDA (Shenandoah Muni, IA, US)
Text:KSDA 201315Z AUTO 19011G16KT 160V220 10SM CLR 27/23 A2977 RMK AO2
Temperature: 27.0°C ( 81°F)
Dewpoint: 23.0°C ( 73°F) [RH = 79%]
Pressure (altimeter):29.77 inches Hg (1008.2 mb)
Winds:from the S (190 degrees) at 13 MPH (11 knots; 5.7 m/s) gusting to 18 MPH (16 knots; 8.2 m/s)
Visibility:10 or more sm (16+ km)
Ceiling:at least 12,000 feet AGL
Clouds:sky clear below 12,000 feet AGL
QC Flag:automated observation with no human augmentation